Sign in:
Email
 Password  save:
  
 Company Reports 
 
   
My Recent Searches
  Help
 
   
 
 
Get Institutions for : 
Sigma-Aldrich Corp (SIAL)    
$103.43 0.45 (0.44%) as of 4:30 Mon 7/28


Download
     
Institutional Holders
Viewing Quarter :
  
Total Institutions: 495    4
Total shares held : 
96,079,067  
% of shares held : 
80.74%  
Changes In:
New/increased positions vs   
old/decreased positions : 
  -57  
Amount of shares held : 
-1,288,210  
% of shares held change : 
  -1.08%  
Quarter Price vs. Current Price:
Last Quarter's Starting Price
$92.78  
Last Quarter's Ending Price : 
$93.38  
Last Quarter's Average Price
$93.26  
Change from last quarter's     
avg. price to the last closing  : 
10.17 (10.9%)  




 
All Securities Held :
Positions
     Shares
% Of
Total Shares
New Positions :
22
 290,960
 0.3%
 
Increased Positions :
151
 4,527,698
 4.71%
 
Unchanged Positions :
118
 17,141,587
 17.84%
 
Decreased Positions :
204
-4,029,663
-4.19%
 
Closed Positions :
26
-2,077,205
-2.16%
 
Guru Positions :
3
96,389
 0.1%
 
View holdings for period: 
6-30-2012 View holdings for period: 
9-30-2012 View holdings for period: 
12-31-2012 View holdings for period: 
3-31-2013 View holdings for period: 
6-30-2013 View holdings for period: 
9-30-2013 View holdings for period: 
12-31-2013 View holdings for the current period

  Page 1 of 1  
Free Registration Required For Full Results


            Institution Name
Portfolio
Position
New/Closed
Position

Filing Date

Total Shares

Total Value

Change in Shares

File
   STATE FARM MUTUAL AUTOMOBILE INSURANCE CO 16 - 2014-03-31 14,033,160 $1,310,417,000 0
   VANGUARD GROUP INC 294 - 2014-03-31 9,377,235 $875,646,000 154,233
   BANK OF NEW YORK MELLON CORP 113 - 2014-03-31 6,880,288 $642,482,000 -304,518
   STATE STREET CORP 310 - 2014-03-31 6,110,951 $570,636,000 -270,892
   WELLS FARGO & CO/MN 196 - 2014-03-31 3,182,788 $297,208,000 -5,882
   BLACKROCK INSTITUTIONAL TRUST COMPANY 373 - 2014-03-31 3,105,919 $290,031,000 -4,572
   HARDING LOEVNER MANAGEMENT L P/NJ/ 14 - 2014-03-31 3,053,863 $285,170,000 -33,834
   INVESCO LTD 228 - 2014-03-31 2,802,941 $261,740,000 -80,520
   FMR LLC 533 - 2014-03-31 2,751,489 $256,934,000 294,579
   J P MORGAN CHASE & CO 306 - 2014-03-31 2,549,654 $238,084,000 -133,885
   YACKTMAN ASSET MANAGEMENT CO/IL 25 - 2014-03-31 2,397,543 $223,883,000 -5,972
   FUNDSMITH LLP 2 - 2014-03-31 1,209,341 $178,680,000 765,927
   NORTHERN TRUST CORP 341 - 2014-03-31 1,777,675 $166,000,000 65,388
   BLACKROCK FUND ADVISORS 529 - 2014-03-31 1,644,059 $153,522,000 35,225
   CAPITAL RESEARCH GLOBAL INVESTORS 255 - 2014-03-31 1,200,000 $112,056,000 0
   FRANKLIN RESOURCES INC 361 - 2014-03-31 1,110,511 $103,700,000 -7,232
   BLACKROCK GROUP LTD 370 - 2014-03-31 995,896 $92,998,000 73,832
   GEODE CAPITAL MANAGEMENT LLC 333 - 2014-03-31 936,147 $87,382,000 5,120
   CAPITAL COUNSEL LLC/NY 11 - 2014-03-31 920,219 $85,930,000 5,748
   FAIRPOINTE CAPITAL LLC 42 - 2014-03-31 864,080 $80,688,000 -62,386
   PRICE T ROWE ASSOCIATES INC /MD/ 753 - 2014-03-31 730,584 $68,222,000 -5,928
   BTIM CORP. 16 - 2014-03-31 664,079 $62,012,000 4,030
   NEUBERGER BERMAN GROUP LLC 406 - 2014-03-31 602,057 $56,220,000 84,448
   TIAA CREF INVESTMENT MANAGEMENT LLC 460 - 2014-03-31 582,068 $54,354,000 46,612
   AMERICAN CENTURY COMPANIES INC 352 - 2014-03-31 572,792 $53,487,000 185,050
   BANK OF AMERICA CORP /DE/ 649 - 2014-03-31 504,510 $47,112,000 -16,879
   LEGAL & GENERAL GROUP PLC 382 - 2014-03-31 496,029 $46,319,000 -23,515
   BLACKROCK INC. 276 - 2014-03-31 487,644 $45,536,000 -12,260
   GENEVA CAPITAL MANAGEMENT LTD/WI 51 - 2014-03-31 463,613 $43,292,000 -10,375
   MARATHON ASSET MANAGEMENT LLP 34 - 2014-03-31 454,168 $42,408,000 -581,306
   MACKENZIE FINANCIAL CORP 117 - 2014-03-31 421,240 $39,335,000 -190,931
   UBS GLOBAL ASSET MANAGEMENT AMERICAS INC 452 - 2014-03-31 416,550 $38,897,000 29,907
   BLACKROCK ADVISORS LLC 393 - 2014-03-31 404,725 $37,793,000 17,355
   GOLDMAN SACHS GROUP INC/ 938 - 2014-03-31 384,940 $35,946,000 -171,323
   MORGAN STANLEY 958 - 2014-03-31 372,192 $34,755,000 103,392
   PGGM INVESTMENTS 131 - 2014-03-31 353,190 $32,981,000 246,076
   NEW YORK STATE COMMON RETIREMENT FUND 433 - 2014-03-31 345,056 $32,221,000 0
   CREDIT SUISSE/ 541 - 2014-03-31 334,677 $31,253,000 -48,372
   RENAISSANCE TECHNOLOGIES LLC 330 - 2014-03-31 313,300 $29,256,000 106,700
   D E SHAW & CO INC 314 - 2014-03-31 312,723 $29,202,000 244,627
   CALIFORNIA PUBLIC EMPLOYEES RETIREMENT SYSTEM 461 - 2014-03-31 303,672 $28,441,000 -8,379
   ROYAL BANK OF CANADA 489 - 2014-03-31 298,548 $27,879,000 -53,185
   SUMITOMO MITSUI TRUST HOLDINGS, INC. 388 - 2014-03-31 296,909 $27,725,000 -8,569
   JANUS CAPITAL MANAGEMENT LLC 509 - 2014-03-31 289,500 $27,034,000 175,100
   DEUTSCHE BANK AG 764 - 2014-03-31 289,288 $27,010,000 -276,104
   CITADEL ADVISORS LLC 426 - 2014-03-31 287,617 $26,858,000 -247,369
   EUCLID ADVISORS LLC 110 - 2014-03-31 282,491 $26,379,000 75,320
   FIERA SCEPTRE INC. 108 - 2014-03-31 277,279 $25,892,000 165,412
   SCHWAB CHARLES INVESTMENT MANAGEMENT INC 407 - 2014-03-31 255,786 $23,886,000 7,367
   CANADA PENSION PLAN INVESTMENT BOARD 222 - 2014-03-31 255,490 $23,858,000 159,101
   ALLIANCEBERNSTEIN L.P. 642 - 2014-03-31 252,536 $23,582,000 -2,068
   ABSOLUTE RETURN CAPITAL, LLC 89 - 2014-03-31 248,546 $23,209,000 -147,654
   NATIONWIDE FUND ADVISORS 226 - 2014-03-31 246,552 $23,023,000 -545
   GUGGENHEIM CAPITAL LLC 541 - 2014-03-31 245,429 $22,919,000 6,437
   ALYESKA INVESTMENT GROUP, L.P. 25 - 2014-03-31 243,885 $22,774,000 168,885
   RHUMBLINE ADVISERS 270 - 2014-03-31 242,646 $22,658,000 51,298
   DAVIS SELECTED ADVISERS 78 - 2014-03-31 241,179 $22,521,000 1,714
   GRANTHAM MAYO VAN OTTERLOO & CO LLC 142 - 2014-03-31 236,278 $22,064,000 114,342
   STACK FINANCIAL MANAGEMENT INC 7 - 2014-03-31 227,762 $21,268,000 -5,687
   MITSUBISHI UFJ TRUST & BANKING CORP 411 - 2014-03-31 226,885 $21,187,000 226,885
   TEACHERS ADVISORS INC 544 - 2014-03-31 226,635 $21,163,000 69,514
   BLACKROCK INVESTMENT MANAGEMENT LLC 493 - 2014-03-31 225,449 $21,052,000 7,476
   CHAMPLAIN INVESTMENT PARTNERS LLC 111 - 2014-03-31 222,130 $20,742,000 13,330
   CALIFORNIA STATE TEACHERS RETIREMENT SYSTEM 348 - 2014-03-31 218,888 $20,440,000 1,000
   HORIZON KINETICS LLC 44 - 2014-03-31 218,865 $20,438,000 -27,993
   NEW YORK STATE TEACHERS RETIREMENT SYSTEM 353 - 2014-03-31 218,769 $20,429,000 -8,329
   SG AMERICAS SECURITIES LLC 254 - 2014-03-31 211,829 $19,781,000 74,347
   CONGRESS ASSET MANAGEMENT CO /MA 65 - 2014-03-31 204,764 $19,121,000 68,461
   CLIFFORD ASSOCIATES LLC 26 - 2014-03-31 202,094 $18,872,000 -5,105
   CHEVY CHASE TRUST HOLDINGS, INC. 190 - 2014-03-31 193,275 $18,048,000 -3,292
   MCDANIEL TERRY & CO 5 - 2014-03-31 186,320 $17,399,000 1,178
   BNP Paribas Investment Partners S.A. 177 - 2014-03-31 185,371 $17,310,000 -33,927
   STATE BOARD OF ADMINISTRATION OF FLORIDA RETIREMEN 349 - 2014-03-31 183,213 $17,108,000 -14,456
   PRUDENTIAL FINANCIAL INC 541 - 2014-03-31 181,147 $16,916,000 1,250
   PRINCIPAL FINANCIAL GROUP INC 635 - 2014-03-31 169,286 $15,808,000 905
   COMPASS CAPITAL MANAGEMENT INC/ 18 - 2014-03-31 168,294 $15,715,000 885
   DIMENSIONAL FUND ADVISORS INC 1809 - 2014-03-31 167,604 $15,648,000 2,596
   SAWGRASS ASSET MANAGEMENT LLC 41 - 2014-03-31 164,206 $15,334,000 -4,190
   EMPLOYEES RETIREMENT SYSTEM OF TEXAS 112 - 2014-03-31 162,000 $15,128,000 147,000
   US BANCORP 239 - 2014-03-31 160,878 $15,023,000 3,822
   MIZUHO TRUST & BANKING CO., LTD. 387 - 2014-03-31 157,358 $14,694,000 4,527
   EATON VANCE MANAGEMENT 257 - 2014-03-31 156,208 $14,586,000 -10,950
   REIK & CO. LLC 6 - 2014-03-31 155,208 $14,493,000 600
   PUBLIC EMPLOYEES RETIREMENT ASSOCIATION OF COLORAD 192 - 2014-03-31 151,929 $14,187,000 -773
   GLENMEDE TRUST CO NA 118 - 2014-03-31 148,009 $13,821,000 9,306
   CONFLUENCE INVESTMENT MANAGEMENT LLC 47 - 2014-03-31 140,250 $13,097,000 5,160
   NICHOLS & PRATT ADVISERS LLP /MA 30 - 2014-03-31 139,251 $13,022,000 10,050
   BNP PARIBAS ARBITRAGE SA 314 - 2014-03-31 133,707 $12,864,000 -73,935
   EULAV ASSET MANAGEMENT 35 - 2014-03-31 135,700 $12,672,000 0
   BLACKROCK JAPAN CO LTD 382 - 2014-03-31 134,610 $12,570,000 -1,826
   FIRST TRUST ADVISORS LP 569 - 2014-03-31 128,648 $12,013,000 27,956
   APG ALL PENSIONS GROUP 475 - 2014-03-31 127,330 $11,890,000 0
   PROFESSIONAL ADVISORY SERVICES INC 17 - 2014-03-31 126,046 $11,770,000 -381
   SCOTIA CAPITAL INC. 65 - 2014-03-31 123,930 $11,572,000 80
   EDGE ASSET MANAGEMENT INC 189 - 2014-03-31 120,111 $11,216,000 0
   NORTHERN TRUST CO OF CONNECTICUT 412 - 2013-12-31 119,057 $11,193,000 -5,329
   PARAMETRIC PORTFOLIO ASSOCIATES 661 - 2014-03-31 119,473 $11,156,000 -1,780
   MANUFACTURERES LIFE INSURANCE CO 615 - 2014-03-31 118,527 $11,068,000 2,322
   SHAYNE & CO., LLC 5 - 2014-03-31 118,205 $11,038,000 -117
   Swiss National Bank 395 - 2014-03-31 115,946 $10,827,000 -11,700

  100 Records found
  1    
  Page 1 of 1
Free Registration Required For Full Results